Keaau, HI (96749)

11:49 AM HST on August 24, 2016 (GMT -1000)
Hawaiian Paradise Park | | Change Station
Active Advisory: Flash Flood Watch Active Notice: Record Report

Elev 355 ft 19.56 °N, 154.97 °W | Updated 2 minutes ago

Mostly Cloudy
Mostly Cloudy
81.6 °F
Feels Like 89 °F
N
0.0
Wind Variable Wind from ESE

Today
High -- | Low -- °F
--% Chance of Precip.
Yesterday
High -- | Low -- °F
Precip. -- in
Pressure 30.03 in
Visibility 10.0 miles
Clouds Mostly Cloudy 3700 ft
Heat Index 89 °F
Dew Point 77 °F
Humidity 86%
Rainfall 0.14 in
Snow Depth Not available.
6:02 AM 6:40 PM
Waning Gibbous, 53% visible
METAR PHTO 242053Z 13007KT 10SM BKN037 27/22 A3003 RMK AO2 SLP167 60000 T02720222 50001
Pressure 30.03 in
Visibility 10.0 miles
Clouds Mostly Cloudy 3700 ft
Heat Index 89 °F
Dew Point 77 °F
Humidity 86%
Rainfall 0.14 in
Snow Depth Not available.
6:02 AM 6:40 PM
Waning Gibbous, 53% visible
METAR PHTO 242053Z 13007KT 10SM BKN037 27/22 A3003 RMK AO2 SLP167 60000 T02720222 50001

10-Day Weather Forecast

Almanac

Astronomy

Aug. 24, 2016 Rise Set
Actual Time
Civil Twilight
Nautical Twilight
Astronomical Twilight
Moon
Length of Visible Light
Length of Day
Tomorrow will be .
, % of the Moon is Illuminated

Today's Extremes

State Highs State Lows

Community

WunderPhotos

Upload Photos

1,934,722 photos uploaded!

WunderBlog® & News

Nearby

Air Quality

  Air Quality AQ Index Pollutant
Not available.

Snow Depth

Station Depth Elevation

Earthquake Activity

City Distance Mag. Time & Date
Minimum magnitude displayed is 2.5.

Coastal Water Temperatures

Place Temperature

Stations

Nearby Weather Stations

Station Location Temp. Windchill Dew Point Humidity Wind Precip. Elev Updated Type
                   

Watches & Warnings

Flash Flood Watch
Issued: 4:09 AM HST Aug. 24, 2016 – National Weather Service

... Flash Flood Watch remains in effect through this afternoon...

The Flash Flood Watch continues for

* all Hawaiian islands.

* Through this afternoon

* deep tropical moisture will continue to produce heavy downpours
and a chance of thunderstorms through late this afternoon. With
streams remaining elevated and the ground already saturated from
recent heavy rains in many areas... there will be an elevated
risk for flash flooding.

Precautionary/preparedness actions...

A Flash Flood Watch means that conditions may develop that lead
to flash flooding. Flash flooding is very dangerous.

You should monitor later forecasts and be prepared to take action
should flash flood warnings be issued.